Time;durP1;ratioP1;P1;durP2;ratioP2;P2;SDS_P1;SDS_P2;PMS_P1;PMS_P2;Temp;Humidity;BMP_temperature;BMP_pressure;BME280_temperature;BME280_humidity;BME280_pressure;Samples;Min_cycle;Max_cycle;Signal;HPM_P1;HPM_P2
2022/03/19 00:00:19;;;;;;;16.48;10.05;;;;;;;0.53;100.00;102569.72;5011792;28;20132;-68
2022/03/19 00:02:45;;;;;;;24.50;11.88;;;;;;;0.48;100.00;102558.59;5011462;28;20550;-67
2022/03/19 00:05:11;;;;;;;12.70;9.38;;;;;;;0.42;100.00;102538.25;5011547;28;20034;-68
2022/03/19 00:07:40;;;;;;;13.23;8.98;;;;;;;0.83;100.00;102559.72;5011388;28;20044;-68
2022/03/19 00:10:06;;;;;;;15.48;9.88;;;;;;;1.00;100.00;102559.72;5011370;28;20029;-67
2022/03/19 00:12:32;;;;;;;13.45;8.98;;;;;;;0.97;100.00;102560.41;5010942;28;20026;-67
2022/03/19 00:14:58;;;;;;;15.15;9.90;;;;;;;0.50;100.00;102540.41;5011184;28;20041;-67
2022/03/19 00:17:23;;;;;;;16.10;9.60;;;;;;;0.44;100.00;102535.06;5011115;28;20037;-68
2022/03/19 00:19:48;;;;;;;15.38;9.05;;;;;;;1.07;100.00;102562.63;5011359;28;20110;-67
2022/03/19 00:22:14;;;;;;;14.38;9.60;;;;;;;0.82;100.00;102553.00;4993651;28;20128;-68
2022/03/19 00:24:40;;;;;;;14.18;10.07;;;;;;;0.63;100.00;102537.78;5011198;28;20034;-67
2022/03/19 00:27:05;;;;;;;16.55;11.07;;;;;;;0.83;100.00;102558.88;5011075;28;20049;-68
2022/03/19 00:29:31;;;;;;;18.90;12.00;;;;;;;0.90;100.00;102533.34;5009651;28;20124;-68
2022/03/19 00:31:56;;;;;;;18.63;11.40;;;;;;;0.85;100.00;102552.31;5009360;28;20504;-67
2022/03/19 00:34:22;;;;;;;17.92;11.15;;;;;;;0.81;100.00;102517.88;5011087;28;20477;-68
2022/03/19 00:36:49;;;;;;;17.88;11.35;;;;;;;0.78;100.00;102518.56;5011119;28;20030;-68
2022/03/19 00:39:15;;;;;;;15.65;10.95;;;;;;;0.73;100.00;102551.66;5010897;28;20030;-67
2022/03/19 00:41:40;;;;;;;16.05;10.77;;;;;;;0.59;100.00;102503.38;5011301;28;20030;-68
2022/03/19 00:44:06;;;;;;;17.42;11.88;;;;;;;0.36;100.00;102518.78;5009567;28;20087;-67
2022/03/19 00:46:31;;;;;;;17.20;12.13;;;;;;;0.12;100.00;102486.59;5010557;28;20041;-67
2022/03/19 00:48:57;;;;;;;21.50;13.75;;;;;;;0.41;100.00;102484.00;5010991;28;20037;-65
2022/03/19 00:51:22;;;;;;;21.30;13.73;;;;;;;0.99;100.00;102546.34;5011154;28;20046;-67
2022/03/19 00:53:47;;;;;;;27.15;16.35;;;;;;;0.78;100.00;102541.09;5010780;28;20117;-67
2022/03/19 00:56:13;;;;;;;29.75;16.85;;;;;;;0.74;100.00;102508.31;5010536;28;20029;-66
2022/03/19 00:58:38;;;;;;;29.27;17.52;;;;;;;0.29;100.00;102526.75;5010847;28;20423;-67
2022/03/19 01:03:37;;;;;;;26.55;16.63;;;;;;;-0.04;100.00;102507.41;4399058;28;9999755;-65
2022/03/19 01:06:03;;;;;;;28.02;17.80;;;;;;;0.08;100.00;102544.72;5030236;28;20072;-66
2022/03/19 01:08:28;;;;;;;32.30;19.17;;;;;;;-0.17;100.00;102514.97;5030294;28;20036;-66
2022/03/19 01:10:54;;;;;;;26.13;17.40;;;;;;;0.64;100.00;102538.63;5029576;28;20308;-66
2022/03/19 01:13:19;;;;;;;27.48;17.15;;;;;;;0.19;100.00;102548.66;5012820;28;20494;-66
2022/03/19 01:15:44;;;;;;;28.23;15.93;;;;;;;0.12;100.00;102534.09;5030622;28;20056;-66
2022/03/19 01:18:10;;;;;;;24.35;14.63;;;;;;;0.22;100.00;102528.84;5017261;28;20029;-66
2022/03/19 01:20:36;;;;;;;19.30;12.95;;;;;;;0.53;100.00;102510.56;5010714;28;20034;-66
2022/03/19 01:23:01;;;;;;;21.15;13.25;;;;;;;0.32;100.00;102531.91;5010650;28;20029;-66
2022/03/19 01:25:27;;;;;;;18.50;12.52;;;;;;;0.49;100.00;102530.31;5013425;28;20022;-65
2022/03/19 01:27:52;;;;;;;19.70;12.48;;;;;;;0.51;100.00;102529.63;4996821;28;20120;-66
2022/03/19 01:30:21;;;;;;;20.25;12.93;;;;;;;-0.04;100.00;102544.91;5014636;28;20022;-66
2022/03/19 01:32:48;;;;;;;19.60;12.70;;;;;;;0.35;100.00;102488.69;5014400;28;20116;-66
2022/03/19 01:35:15;;;;;;;20.08;13.07;;;;;;;0.43;100.00;102522.47;5014424;28;20026;-65
2022/03/19 01:37:42;;;;;;;18.30;13.05;;;;;;;0.29;100.00;102525.88;5025612;28;20033;-66
2022/03/19 01:40:09;;;;;;;20.52;13.43;;;;;;;0.30;100.00;102518.44;5033878;28;20061;-65
2022/03/19 01:42:39;;;;;;;18.80;13.05;;;;;;;0.30;100.00;102483.44;5034206;28;20029;-65
2022/03/19 01:45:10;;;;;;;21.40;13.45;;;;;;;0.07;100.00;102503.84;5034189;28;20029;-65
2022/03/19 01:47:36;;;;;;;19.75;14.10;;;;;;;0.19;100.00;102523.66;5033851;28;20025;-65
2022/03/19 01:50:02;;;;;;;19.90;13.25;;;;;;;0.43;100.00;102510.84;5033861;28;20033;-65
2022/03/19 01:52:28;;;;;;;24.40;13.90;;;;;;;0.17;100.00;102513.56;5033563;28;20029;-65
2022/03/19 01:54:54;;;;;;;21.00;13.82;;;;;;;0.31;100.00;102512.69;5033791;28;20625;-65
2022/03/19 01:57:23;;;;;;;23.95;14.65;;;;;;;-0.37;100.00;102485.50;5033745;28;20426;-65
2022/03/19 01:59:50;;;;;;;23.63;15.27;;;;;;;0.09;100.00;102518.91;5033963;28;20056;-65
2022/03/19 02:02:16;;;;;;;24.30;15.15;;;;;;;0.14;100.00;102517.53;5033615;28;20049;-65
2022/03/19 02:04:42;;;;;;;24.95;15.43;;;;;;;0.11;100.00;102520.72;5033793;28;20191;-65
2022/03/19 02:07:11;;;;;;;22.33;15.48;;;;;;;-0.24;100.00;102473.78;5033648;28;20463;-64
2022/03/19 02:09:38;;;;;;;23.23;14.93;;;;;;;0.30;100.00;102508.44;5033457;28;20033;-65
2022/03/19 02:12:04;;;;;;;21.67;14.07;;;;;;;-0.05;100.00;102484.03;5032391;28;20030;-65
2022/03/19 02:14:34;;;;;;;20.08;13.18;;;;;;;0.27;100.00;102472.41;5033403;28;20033;-65
2022/03/19 02:17:01;;;;;;;19.23;13.13;;;;;;;0.45;100.00;102515.91;5033428;28;20026;-65
2022/03/19 02:19:26;;;;;;;20.75;13.10;;;;;;;0.30;100.00;102510.94;5033119;28;20036;-65
2022/03/19 02:21:52;;;;;;;20.73;13.02;;;;;;;0.26;100.00;102505.72;5033177;28;20025;-65
2022/03/19 02:27:03;;;;;;;18.33;11.82;;;;;;;0.23;100.00;102508.03;5033440;28;20116;-65
2022/03/19 02:29:28;;;;;;;17.02;11.15;;;;;;;0.11;100.00;102474.84;5032955;28;20040;-65
2022/03/19 02:31:57;;;;;;;18.00;10.90;;;;;;;0.04;100.00;102507.81;5033073;28;20017;-65
2022/03/19 02:34:23;;;;;;;14.77;10.60;;;;;;;0.14;100.00;102510.03;5028589;28;20100;-65
2022/03/19 02:36:49;;;;;;;19.38;11.15;;;;;;;0.20;100.00;102467.88;5013118;28;20175;-65
2022/03/19 02:39:17;;;;;;;13.25;9.70;;;;;;;0.35;100.00;102512.06;5013339;28;20029;-65
2022/03/19 02:41:47;;;;;;;13.98;10.40;;;;;;;0.15;100.00;102511.75;5013244;28;20521;-65
2022/03/19 02:44:14;;;;;;;16.13;9.77;;;;;;;0.31;100.00;102496.81;4995434;28;20495;-65
2022/03/19 02:46:41;;;;;;;16.05;10.15;;;;;;;0.03;100.00;102448.56;5013013;28;20030;-65
2022/03/19 02:49:07;;;;;;;15.82;10.10;;;;;;;0.23;100.00;102508.91;5012957;28;20030;-65
2022/03/19 02:51:33;;;;;;;15.35;10.15;;;;;;;-0.20;100.00;102509.81;5011739;28;20022;-66
2022/03/19 02:53:59;;;;;;;14.80;10.05;;;;;;;0.23;100.00;102506.41;5013043;28;20066;-64
2022/03/19 02:56:24;;;;;;;15.15;9.90;;;;;;;0.13;100.00;102510.81;5012947;28;20099;-66
2022/03/19 02:58:50;;;;;;;16.00;10.63;;;;;;;0.09;100.00;102513.91;5012715;28;20022;-65
2022/03/19 03:01:15;;;;;;;15.80;10.60;;;;;;;0.29;100.00;102480.84;5012905;28;20136;-64
2022/03/19 03:03:41;;;;;;;14.00;10.30;;;;;;;0.23;100.00;102515.53;5013102;28;20038;-65
2022/03/19 03:06:07;;;;;;;16.90;11.55;;;;;;;-0.19;100.00;102519.88;5012682;28;20487;-66
2022/03/19 03:08:32;;;;;;;19.65;13.15;;;;;;;0.10;100.00;102524.00;5012778;28;20030;-66
2022/03/19 03:10:58;;;;;;;18.60;13.98;;;;;;;-0.01;100.00;102515.06;5012831;28;20028;-66
2022/03/19 03:13:24;;;;;;;23.13;15.57;;;;;;;-0.46;100.00;102450.03;5012571;28;20104;-66
2022/03/19 03:15:49;;;;;;;24.75;15.52;;;;;;;-0.02;100.00;102494.19;5012450;28;20108;-65
2022/03/19 03:18:14;;;;;;;23.17;15.70;;;;;;;-0.62;100.00;102483.25;5012226;28;20026;-66
2022/03/19 03:20:40;;;;;;;19.67;13.68;;;;;;;-1.18;100.00;102489.06;5012489;28;20032;-65
2022/03/19 03:23:05;;;;;;;19.65;13.18;;;;;;;-0.98;100.00;102516.06;5012441;28;20037;-66
2022/03/19 03:25:31;;;;;;;26.27;17.80;;;;;;;-1.40;100.00;102486.03;5012413;28;20053;-65
2022/03/19 03:27:56;;;;;;;31.15;18.35;;;;;;;-1.60;100.00;102479.84;5012390;28;20116;-66
2022/03/19 03:30:22;;;;;;;23.67;14.60;;;;;;;-0.87;100.00;102515.06;5012424;28;20028;-66
2022/03/19 03:32:47;;;;;;;22.80;12.88;;;;;;;-1.60;100.00;102519.75;5011906;28;20049;-66
2022/03/19 03:35:12;;;;;;;18.92;12.82;;;;;;;-1.77;100.00;102520.34;4994693;28;20392;-65
2022/03/19 03:37:38;;;;;;;22.17;12.52;;;;;;;-1.54;100.00;102487.72;4994516;28;20022;-66
2022/03/19 03:40:05;;;;;;;20.85;13.20;;;;;;;-1.78;100.00;102482.06;5012300;28;20440;-65
2022/03/19 03:42:30;;;;;;;21.92;12.93;;;;;;;-1.55;100.00;102515.03;5011095;28;20030;-65
2022/03/19 03:44:58;;;;;;;20.58;13.50;;;;;;;-1.65;100.00;102482.84;5011918;28;20541;-65
2022/03/19 03:47:25;;;;;;;18.92;13.45;;;;;;;-1.46;100.00;102520.59;5010889;28;20136;-65
2022/03/19 03:49:53;;;;;;;19.95;12.60;;;;;;;-1.63;100.00;102509.59;5012007;28;20060;-66
2022/03/19 03:52:19;;;;;;;20.25;12.95;;;;;;;-1.79;100.00;102487.84;5024737;28;20033;-65
2022/03/19 03:54:44;;;;;;;27.15;15.40;;;;;;;-1.34;100.00;102523.84;5031534;28;20112;-65
2022/03/19 03:57:10;;;;;;;29.10;17.70;;;;;;;-1.33;100.00;102520.59;5031290;28;20037;-64
2022/03/19 03:59:35;;;;;;;33.17;22.55;;;;;;;-1.27;100.00;102526.78;5031430;28;20055;-65
2022/03/19 04:02:01;;;;;;;32.45;21.65;;;;;;;-1.56;100.00;102496.72;5031167;28;20465;-66
2022/03/19 04:04:26;;;;;;;34.10;21.80;;;;;;;-1.18;100.00;102519.88;5031456;28;20029;-66
2022/03/19 04:06:52;;;;;;;28.20;19.02;;;;;;;-1.41;100.00;102530.09;5031339;28;20033;-65
2022/03/19 04:09:17;;;;;;;31.45;20.35;;;;;;;-1.39;100.00;102487.78;5031262;28;20025;-65
2022/03/19 04:11:42;;;;;;;31.27;19.35;;;;;;;-1.59;100.00;102491.56;5029864;28;20021;-65
2022/03/19 04:14:08;;;;;;;29.35;17.90;;;;;;;-1.66;100.00;102501.91;5013335;28;20021;-65
2022/03/19 04:16:33;;;;;;;29.08;18.40;;;;;;;-0.94;100.00;102513.84;5030970;28;20072;-64
2022/03/19 04:18:59;;;;;;;30.05;18.52;;;;;;;-1.14;100.00;102510.94;5013665;28;20125;-65
2022/03/19 04:21:24;;;;;;;33.15;19.55;;;;;;;-1.94;100.00;102466.94;5029928;28;20030;-65
2022/03/19 04:23:50;;;;;;;32.75;19.67;;;;;;;-1.20;100.00;102518.03;5030966;28;20094;-65
2022/03/19 04:26:15;;;;;;;40.20;22.75;;;;;;;-1.56;100.00;102473.41;5031154;28;20026;-65
2022/03/19 04:28:40;;;;;;;44.88;26.02;;;;;;;-1.43;100.00;102511.69;5030966;28;20029;-65
2022/03/19 04:31:06;;;;;;;39.90;23.38;;;;;;;-1.30;100.00;102525.75;5029727;28;20029;-66
2022/03/19 04:33:31;;;;;;;39.95;23.48;;;;;;;-1.65;100.00;102531.06;5031109;28;20075;-65
2022/03/19 04:38:41;;;;;;;28.88;18.25;;;;;;;-1.03;100.00;102539.91;5030825;28;20508;-65
2022/03/19 04:41:06;;;;;;;29.98;19.98;;;;;;;-2.21;100.00;102522.50;5030604;28;20119;-64
2022/03/19 04:43:31;;;;;;;27.13;18.75;;;;;;;-3.24;100.00;102498.97;5030605;28;20021;-65
2022/03/19 04:45:57;;;;;;;32.33;19.52;;;;;;;-2.77;100.00;102552.78;5030958;28;20154;-66
2022/03/19 04:48:22;;;;;;;47.05;27.27;;;;;;;-2.75;100.00;102514.78;5030567;28;20076;-65
2022/03/19 04:50:48;;;;;;;64.30;33.63;;;;;;;-2.00;100.00;102511.41;5030796;28;20433;-65
2022/03/19 04:53:14;;;;;;;42.80;25.90;;;;;;;-0.94;100.00;102517.97;5030790;28;20027;-65
2022/03/19 04:55:40;;;;;;;30.15;18.05;;;;;;;-2.05;100.00;102519.38;5027470;28;20113;-65
2022/03/19 04:58:07;;;;;;;25.02;15.10;;;;;;;-1.31;100.00;102539.88;5028948;28;20060;-64
2022/03/19 05:00:33;;;;;;;27.45;17.08;;;;;;;-1.55;100.00;102542.47;5023329;28;20036;-64
2022/03/19 05:02:59;;;;;;;35.47;22.13;;;;;;;-1.72;100.00;102545.56;5030378;28;20049;-64
2022/03/19 05:05:25;;;;;;;31.08;18.52;;;;;;;-1.54;100.00;102546.69;5021828;28;20100;-64
2022/03/19 05:07:54;;;;;;;31.23;18.70;;;;;;;-2.27;100.00;102556.97;5030187;28;20067;-63
2022/03/19 05:13:04;;;;;;;53.80;30.00;;;;;;;-1.76;100.00;102517.06;5030600;28;20037;-63
2022/03/19 05:15:30;;;;;;;33.72;19.80;;;;;;;-1.89;100.00;102517.94;5030202;28;20025;-63
2022/03/19 05:17:55;;;;;;;26.20;16.42;;;;;;;-2.39;100.00;102526.28;5012192;28;20107;-63
2022/03/19 05:20:21;;;;;;;23.83;15.00;;;;;;;-2.75;100.00;102518.91;5030051;28;20120;-63
2022/03/19 05:22:46;;;;;;;23.92;15.90;;;;;;;-1.88;100.00;102544.56;5030283;28;20033;-63
2022/03/19 05:25:12;;;;;;;25.60;16.33;;;;;;;-1.94;100.00;102510.94;5029845;28;20402;-64
2022/03/19 05:27:38;;;;;;;34.08;24.90;;;;;;;-0.96;100.00;102546.97;5029938;28;20043;-63
2022/03/19 05:30:04;;;;;;;44.75;27.45;;;;;;;-1.06;100.00;102510.63;5030155;28;20025;-64
2022/03/19 05:32:30;;;;;;;62.38;31.85;;;;;;;-1.27;100.00;102549.22;5029808;28;20493;-64
2022/03/19 05:34:55;;;;;;;34.22;20.70;;;;;;;-1.53;100.00;102538.44;5016678;28;20018;-63
2022/03/19 05:37:21;;;;;;;23.77;17.10;;;;;;;-1.23;100.00;102508.72;5009069;28;20026;-64
2022/03/19 05:39:46;;;;;;;23.40;16.83;;;;;;;-0.81;100.00;102507.09;5008468;28;20503;-64
2022/03/19 05:42:11;;;;;;;24.05;15.15;;;;;;;-0.35;100.00;102548.91;5010313;28;20034;-65
2022/03/19 05:44:37;;;;;;;22.30;14.82;;;;;;;-0.26;100.00;102554.44;5010429;28;20159;-65
2022/03/19 05:47:03;;;;;;;29.48;17.75;;;;;;;-0.25;100.00;102559.53;5028628;28;20105;-63
2022/03/19 05:49:29;;;;;;;45.30;26.77;;;;;;;-0.21;100.00;102521.44;5029837;28;20033;-63
2022/03/19 05:51:57;;;;;;;69.07;40.55;;;;;;;0.67;100.00;102517.13;5029064;28;20041;-64
2022/03/19 05:54:23;;;;;;;39.13;27.58;;;;;;;0.74;100.00;102558.38;5030056;28;20079;-64
2022/03/19 05:56:49;;;;;;;35.22;22.95;;;;;;;1.07;100.00;102514.22;5030049;28;20037;-64
2022/03/19 05:59:15;;;;;;;41.80;27.38;;;;;;;1.56;100.00;102494.19;5029874;28;20041;-64
2022/03/19 06:01:42;;;;;;;30.25;19.92;;;;;;;1.55;97.60;102547.59;5027848;28;20033;-64
2022/03/19 06:04:08;;;;;;;22.95;16.60;;;;;;;1.83;95.47;102497.16;5030087;28;20032;-64
2022/03/19 06:06:34;;;;;;;20.77;15.63;;;;;;;2.44;89.04;102509.25;5030153;28;20064;-64
2022/03/19 06:08:59;;;;;;;22.33;15.25;;;;;;;2.87;82.58;102537.19;5029667;28;20033;-64
2022/03/19 06:11:25;;;;;;;20.55;16.67;;;;;;;3.35;80.35;102529.22;5032544;28;20509;-64
2022/03/19 06:13:50;;;;;;;23.02;15.63;;;;;;;3.19;76.80;102499.22;5033511;28;20030;-64
2022/03/19 06:16:15;;;;;;;26.40;17.98;;;;;;;3.44;73.65;102509.53;5033326;28;20033;-63
2022/03/19 06:18:46;;;;;;;29.42;18.33;;;;;;;3.03;69.57;102504.38;5033245;28;20029;-64
2022/03/19 06:21:12;;;;;;;16.80;12.43;;;;;;;3.46;66.36;102540.63;5033317;28;20029;-64
2022/03/19 06:23:38;;;;;;;17.90;12.60;;;;;;;3.47;65.39;102536.44;5032712;28;20504;-64
2022/03/19 06:26:03;;;;;;;13.77;10.05;;;;;;;2.99;63.92;102517.59;5033329;28;20029;-64
2022/03/19 06:28:29;;;;;;;20.92;14.20;;;;;;;4.05;62.57;102544.69;5033176;28;20079;-63
2022/03/19 06:30:55;;;;;;;13.88;9.65;;;;;;;3.71;60.33;102541.59;5032981;28;20048;-63
2022/03/19 06:33:21;;;;;;;11.65;8.85;;;;;;;3.97;59.87;102499.09;5032932;28;20048;-64
2022/03/19 06:38:30;;;;;;;15.52;8.70;;;;;;;4.85;57.02;102512.53;5032831;28;20063;-64
2022/03/19 06:41:00;;;;;;;10.57;7.85;;;;;;;4.20;56.41;102517.59;5032961;28;20550;-64
2022/03/19 06:43:26;;;;;;;14.93;8.60;;;;;;;4.56;57.19;102511.44;5032582;28;20026;-64
2022/03/19 06:45:54;;;;;;;9.88;7.03;;;;;;;4.21;56.26;102557.09;5032885;28;20116;-64
2022/03/19 06:48:20;;;;;;;11.85;8.50;;;;;;;5.25;54.85;102544.25;5025134;28;20026;-64
2022/03/19 06:50:46;;;;;;;13.98;10.00;;;;;;;4.93;55.84;102521.22;5012495;28;20034;-64
2022/03/19 06:53:11;;;;;;;8.50;5.88;;;;;;;4.09;53.63;102547.41;5011347;28;20669;-64
2022/03/19 06:55:36;;;;;;;7.68;5.70;;;;;;;3.71;52.93;102481.25;5013061;28;20116;-64
2022/03/19 06:58:02;;;;;;;7.90;5.63;;;;;;;3.72;52.30;102545.88;5021583;28;20086;-64
2022/03/19 07:00:27;;;;;;;10.50;7.13;;;;;;;3.56;54.17;102489.03;5032819;28;20026;-64
2022/03/19 07:02:54;;;;;;;8.18;5.65;;;;;;;3.71;53.05;102522.34;5032541;28;20046;-64
2022/03/19 07:05:25;;;;;;;9.32;5.78;;;;;;;3.82;52.86;102532.88;5031944;28;20025;-64
2022/03/19 07:07:52;;;;;;;7.80;5.05;;;;;;;4.01;52.43;102555.44;5032395;28;20492;-64
2022/03/19 07:10:19;;;;;;;10.32;6.15;;;;;;;3.37;52.74;102494.97;5032322;28;20402;-64
2022/03/19 07:12:49;;;;;;;7.95;5.65;;;;;;;4.02;51.73;102552.97;5032290;28;20030;-64
2022/03/19 07:15:16;;;;;;;11.52;6.47;;;;;;;3.87;52.09;102512.13;5032312;28;20120;-64
2022/03/19 07:17:43;;;;;;;10.25;6.97;;;;;;;4.00;52.66;102556.25;5032292;28;20022;-64
2022/03/19 07:20:10;;;;;;;7.63;5.90;;;;;;;3.78;52.46;102514.28;5032261;28;20410;-64
2022/03/19 07:22:51;;;;;;;10.00;6.30;;;;;;;4.23;51.96;102545.44;5031068;28;20025;-64
2022/03/19 07:25:19;;;;;;;9.47;6.20;;;;;;;4.03;51.43;102538.75;5032037;28;20033;-64
2022/03/19 07:27:45;;;;;;;9.02;5.38;;;;;;;4.14;50.49;102537.53;5032027;28;20030;-64
2022/03/19 07:30:12;;;;;;;6.55;5.43;;;;;;;4.34;50.20;102544.16;5031801;28;20030;-64
2022/03/19 07:32:38;;;;;;;8.32;5.72;;;;;;;4.77;50.35;102537.47;5031789;28;20041;-63
2022/03/19 07:35:05;;;;;;;9.80;5.95;;;;;;;4.33;51.06;102537.44;5031920;28;20022;-65
2022/03/19 07:37:30;;;;;;;8.88;5.88;;;;;;;3.40;52.08;102520.25;5031080;28;20095;-64
2022/03/19 07:39:57;;;;;;;7.82;5.50;;;;;;;3.70;53.84;102553.34;5031690;28;20495;-64
2022/03/19 07:42:23;;;;;;;10.52;6.30;;;;;;;4.03;52.31;102516.09;5032022;28;20029;-64
2022/03/19 07:44:48;;;;;;;8.13;5.68;;;;;;;3.53;52.88;102519.09;5031452;28;20032;-64
2022/03/19 07:47:14;;;;;;;13.90;6.40;;;;;;;3.95;51.51;102527.50;5031674;28;20483;-64
2022/03/19 07:49:40;;;;;;;9.77;6.05;;;;;;;3.46;52.04;102542.25;5031131;28;20064;-64
2022/03/19 07:52:07;;;;;;;9.80;6.50;;;;;;;3.93;52.46;102549.25;5031739;28;20475;-64
2022/03/19 07:54:32;;;;;;;17.70;8.30;;;;;;;3.94;50.24;102508.19;5031247;28;20040;-64
2022/03/19 07:56:58;;;;;;;15.02;7.47;;;;;;;3.49;52.16;102524.78;5031470;28;20025;-64
2022/03/19 07:59:24;;;;;;;8.23;5.82;;;;;;;3.47;52.31;102559.91;5030668;28;20067;-64
2022/03/19 08:01:50;;;;;;;8.57;5.53;;;;;;;2.95;52.60;102550.06;5030699;28;20044;-64
2022/03/19 08:04:16;;;;;;;10.55;5.75;;;;;;;2.82;53.13;102493.41;5031503;28;20029;-64
2022/03/19 08:06:42;;;;;;;15.27;6.63;;;;;;;3.12;52.87;102529.03;5031378;28;20125;-64
2022/03/19 08:09:09;;;;;;;8.95;6.03;;;;;;;4.03;53.11;102558.88;5031130;28;20128;-64
2022/03/19 08:11:35;;;;;;;12.13;6.60;;;;;;;3.08;52.77;102523.03;5031050;28;20032;-64
2022/03/19 08:14:01;;;;;;;15.63;7.70;;;;;;;3.74;52.53;102539.25;5030998;28;20104;-64
2022/03/19 08:16:26;;;;;;;10.55;6.40;;;;;;;3.15;52.22;102509.94;5030803;28;20037;-64
2022/03/19 08:18:52;;;;;;;10.32;6.05;;;;;;;4.28;51.38;102529.69;5031181;28;20067;-64
2022/03/19 08:21:17;;;;;;;8.38;5.88;;;;;;;4.69;50.33;102513.66;5030877;28;20033;-64
2022/03/19 08:23:43;;;;;;;9.18;5.55;;;;;;;4.33;50.24;102515.66;5030659;28;20021;-64
2022/03/19 08:26:08;;;;;;;17.35;8.27;;;;;;;4.87;49.67;102534.44;5013193;28;20038;-64
2022/03/19 08:28:33;;;;;;;8.95;6.55;;;;;;;5.10;49.27;102546.22;5031031;28;20157;-64
2022/03/19 08:30:59;;;;;;;9.93;6.10;;;;;;;4.67;49.21;102504.31;5030326;28;20037;-64
2022/03/19 08:33:25;;;;;;;7.10;5.30;;;;;;;5.09;49.06;102547.03;5012715;28;20037;-64
2022/03/19 08:35:51;;;;;;;9.82;6.38;;;;;;;5.73;48.03;102526.50;5030795;28;20036;-64
2022/03/19 08:41:00;;;;;;;8.77;6.45;;;;;;;5.28;48.56;102486.34;5030828;28;20087;-64
2022/03/19 08:43:26;;;;;;;7.22;5.72;;;;;;;6.11;48.03;102529.50;5029207;28;20124;-64
2022/03/19 08:45:51;;;;;;;8.77;6.50;;;;;;;4.95;47.83;102517.09;5030699;28;20025;-64
2022/03/19 08:48:20;;;;;;;8.57;5.60;;;;;;;5.26;46.88;102515.72;5030773;28;20035;-64
2022/03/19 08:50:46;;;;;;;10.15;6.18;;;;;;;6.12;48.11;102513.53;5030418;28;20025;-64
2022/03/19 08:53:13;;;;;;;12.60;7.03;;;;;;;6.22;47.04;102483.53;5030507;28;20029;-64
2022/03/19 08:55:39;;;;;;;7.32;5.70;;;;;;;5.98;46.59;102524.03;5030550;28;20525;-64
2022/03/19 08:58:04;;;;;;;10.05;6.97;;;;;;;5.28;49.21;102518.28;5030013;28;20064;-64
2022/03/19 09:00:30;;;;;;;7.88;6.13;;;;;;;5.61;47.71;102532.03;5030492;28;20056;-64
2022/03/19 09:02:55;;;;;;;7.20;5.65;;;;;;;5.83;47.98;102519.34;5030578;28;20060;-64
2022/03/19 09:05:22;;;;;;;7.57;6.18;;;;;;;6.23;46.77;102458.31;5030317;28;20033;-65
2022/03/19 09:07:48;;;;;;;6.47;5.38;;;;;;;6.38;46.71;102498.34;5030262;28;20520;-64
2022/03/19 09:10:13;;;;;;;7.00;5.40;;;;;;;5.91;45.61;102461.53;5030567;28;20175;-64
2022/03/19 09:12:39;;;;;;;8.25;5.30;;;;;;;6.28;46.86;102494.66;5012191;28;20033;-64
2022/03/19 09:15:09;;;;;;;9.02;6.30;;;;;;;6.11;46.72;102461.31;5030462;28;20095;-64
2022/03/19 09:17:35;;;;;;;6.30;4.90;;;;;;;6.84;45.72;102471.88;5030201;28;20408;-64
2022/03/19 09:20:01;;;;;;;7.65;5.80;;;;;;;6.49;45.90;102469.16;5030241;28;20071;-64
2022/03/19 09:22:29;;;;;;;10.80;5.65;;;;;;;5.83;46.85;102478.06;5030219;28;20473;-64
2022/03/19 09:24:54;;;;;;;7.15;5.57;;;;;;;6.95;45.11;102502.50;5030311;28;20039;-63
2022/03/19 09:27:20;;;;;;;7.07;5.40;;;;;;;6.76;45.75;102482.56;5029920;28;20422;-64
2022/03/19 09:29:45;;;;;;;8.27;5.25;;;;;;;6.18;45.03;102467.41;5030163;28;20526;-64
2022/03/19 09:32:12;;;;;;;7.00;5.47;;;;;;;6.18;45.19;102482.56;5030118;28;20025;-64
2022/03/19 09:34:37;;;;;;;8.68;5.50;;;;;;;7.25;44.63;102469.59;5030134;28;20033;-64
2022/03/19 09:37:03;;;;;;;8.60;5.72;;;;;;;7.00;45.47;102496.75;5012888;28;20120;-64
2022/03/19 09:39:28;;;;;;;6.68;5.10;;;;;;;6.11;45.75;102484.06;5030523;28;20061;-64
2022/03/19 09:41:55;;;;;;;9.02;6.07;;;;;;;7.66;45.09;102481.59;5030386;28;20029;-64
2022/03/19 09:44:27;;;;;;;7.57;6.10;;;;;;;6.83;44.16;102477.72;5031095;28;20033;-63
2022/03/19 09:46:53;;;;;;;9.40;5.38;;;;;;;6.42;43.64;102460.53;5034175;28;20400;-65
2022/03/19 09:49:19;;;;;;;8.95;5.18;;;;;;;7.28;44.70;102467.13;5033436;28;20037;-64
2022/03/19 09:51:53;;;;;;;6.78;5.25;;;;;;;8.91;47.02;102476.78;5033984;28;20029;-64
2022/03/19 09:54:19;;;;;;;8.35;5.55;;;;;;;6.75;45.14;102479.22;5033628;28;20030;-64
2022/03/19 09:56:45;;;;;;;7.45;5.25;;;;;;;6.77;44.99;102496.94;5033780;28;20080;-64
2022/03/19 09:59:10;;;;;;;8.32;5.93;;;;;;;5.90;45.88;102498.50;5033680;28;20029;-64
2022/03/19 10:01:37;;;;;;;9.70;5.70;;;;;;;7.37;44.76;102488.47;5033350;28;20034;-64
2022/03/19 10:04:11;;;;;;;9.88;6.03;;;;;;;7.73;43.34;102455.59;5033901;28;20029;-64
2022/03/19 10:09:43;;;;;;;;;;;;;;;7.57;43.43;102488.94;5033933;28;20032;-63
2022/03/19 10:12:14;;;;;;;7.00;6.00;;;;;;;7.56;43.74;102449.28;5033421;28;19913;-64
2022/03/19 10:14:39;;;;;;;8.20;5.65;;;;;;;7.10;45.13;102452.34;5033225;28;20116;-64
2022/03/19 10:17:05;;;;;;;7.10;5.88;;;;;;;6.87;44.85;102484.59;5033382;28;20132;-64
2022/03/19 10:19:30;;;;;;;7.63;6.03;;;;;;;7.01;44.71;102444.53;5033138;28;20076;-63
2022/03/19 10:22:08;;;;;;;10.20;6.45;;;;;;;8.40;43.82;102463.91;5033451;28;20502;-63
2022/03/19 10:24:36;;;;;;;7.25;5.80;;;;;;;8.02;44.14;102461.34;5033163;28;20061;-63
2022/03/19 10:27:02;;;;;;;7.82;6.28;;;;;;;8.10;44.51;102465.75;5033216;28;20493;-63
2022/03/19 10:29:33;;;;;;;7.32;6.00;;;;;;;8.49;42.86;102421.03;5033196;28;20029;-63
2022/03/19 10:32:07;;;;;;;8.75;5.80;;;;;;;7.40;44.12;102458.19;5032880;28;20036;-63
2022/03/19 10:34:35;;;;;;;7.18;5.90;;;;;;;7.44;43.25;102448.97;5033164;28;20079;-64
2022/03/19 10:37:01;;;;;;;8.23;5.97;;;;;;;8.22;43.88;102442.38;5033162;28;20462;-63
2022/03/19 10:39:28;;;;;;;6.90;5.40;;;;;;;8.66;43.31;102434.88;5032912;28;20037;-64
2022/03/19 10:41:55;;;;;;;10.73;5.90;;;;;;;8.40;43.02;102455.44;5033318;28;20029;-64
2022/03/19 10:44:30;;;;;;;9.13;6.78;;;;;;;8.11;43.82;102401.59;5032528;28;20034;-63
2022/03/19 10:47:00;;;;;;;8.02;6.18;;;;;;;7.87;42.39;102406.13;5032958;28;20036;-63
2022/03/19 10:49:29;;;;;;;8.15;6.47;;;;;;;8.10;43.35;102434.50;5032972;28;20503;-64
2022/03/19 10:51:57;;;;;;;8.23;6.30;;;;;;;8.48;43.44;102428.56;5032654;28;20519;-63
2022/03/19 10:54:23;;;;;;;8.82;6.28;;;;;;;8.00;44.01;102436.00;5032647;28;20518;-63
2022/03/19 10:56:50;;;;;;;10.15;6.30;;;;;;;8.20;42.41;102416.97;5031976;28;20057;-64
2022/03/19 10:59:16;;;;;;;8.13;5.88;;;;;;;7.40;42.61;102404.19;5032548;28;20461;-63
2022/03/19 11:01:42;;;;;;;6.15;5.30;;;;;;;7.47;42.09;102380.72;5032461;28;20030;-64
2022/03/19 11:04:10;;;;;;;10.05;6.78;;;;;;;8.63;42.30;102433.97;5032343;28;20104;-63
2022/03/19 11:06:38;;;;;;;7.72;6.07;;;;;;;6.69;43.50;102435.22;5032319;28;20037;-64
2022/03/19 11:09:06;;;;;;;10.68;6.30;;;;;;;7.99;42.76;102401.34;5032224;28;20041;-63
2022/03/19 11:11:39;;;;;;;8.73;5.90;;;;;;;7.34;42.97;102383.78;5032037;28;20033;-63
2022/03/19 11:14:07;;;;;;;10.77;5.97;;;;;;;7.83;42.81;102381.56;5032292;28;20139;-63
2022/03/19 11:16:36;;;;;;;10.10;6.63;;;;;;;8.98;42.91;102401.63;5032231;28;20037;-63
2022/03/19 11:19:03;;;;;;;6.68;5.40;;;;;;;8.40;40.14;102381.94;5031956;28;20524;-63
2022/03/19 11:21:31;;;;;;;8.77;5.28;;;;;;;8.09;41.30;102371.97;5032069;28;20438;-63
2022/03/19 11:24:06;;;;;;;8.52;5.80;;;;;;;8.26;42.35;102376.59;5031719;28;20049;-63
2022/03/19 11:26:33;;;;;;;9.57;6.07;;;;;;;9.33;41.73;102396.31;5032229;28;20033;-63
2022/03/19 11:28:58;;;;;;;8.43;5.40;;;;;;;9.20;40.08;102391.03;5031891;28;20495;-64
2022/03/19 11:31:29;;;;;;;5.85;4.97;;;;;;;7.85;41.34;102373.19;5031875;28;20035;-64